createdAt,value
2019-05-21T00:00:03.112Z,69.47
2019-05-21T00:05:02.944Z,69.67
2019-05-21T00:10:03.382Z,69.89
2019-05-21T00:15:02.914Z,70.12
2019-05-21T00:20:03.458Z,70.56
2019-05-21T00:25:02.978Z,70.33
2019-05-21T00:30:02.775Z,70.14
2019-05-21T00:35:03.509Z,70.63
2019-05-21T00:40:03.063Z,70.14
2019-05-21T00:45:02.584Z,70.58
2019-05-21T00:50:03.149Z,70.14
2019-05-21T00:55:02.663Z,69.72
2019-05-21T01:00:03.248Z,69.83
2019-05-21T01:05:02.834Z,69.72
2019-05-21T01:10:03.387Z,69.78
2019-05-21T01:15:03.015Z,69.89
2019-05-21T01:20:02.527Z,69.81
2019-05-21T01:25:03.076Z,69.69
2019-05-21T01:30:02.583Z,70.09
2019-05-21T01:35:16.016Z,70.05
2019-05-21T01:40:02.868Z,69.92
2019-05-21T01:45:03.414Z,70.22
2019-05-21T01:50:02.918Z,70.14
2019-05-21T01:55:03.481Z,69.87
2019-05-21T02:00:02.989Z,69.93
2019-05-21T02:05:02.517Z,69.86
2019-05-21T02:10:03.060Z,69.9
2019-05-21T02:15:02.586Z,69.97
2019-05-21T02:20:03.042Z,69.87
2019-05-21T02:25:02.549Z,69.86
2019-05-21T02:30:03.699Z,69.92
2019-05-21T02:35:02.503Z,69.94
2019-05-21T02:40:03.061Z,70.1
2019-05-21T02:45:02.582Z,70.24
2019-05-21T02:50:03.148Z,70.34
2019-05-21T02:55:02.684Z,70.34
2019-05-21T03:00:03.308Z,70.26
2019-05-21T03:05:02.905Z,70.52
2019-05-21T03:10:03.487Z,70.46
2019-05-21T03:15:02.981Z,70.78
2019-05-21T03:20:02.509Z,70.69
2019-05-21T03:25:03.119Z,70.59
2019-05-21T03:30:02.742Z,70.62
2019-05-21T03:35:03.224Z,71.29
2019-05-21T03:40:02.787Z,71.33
2019-05-21T03:45:07.350Z,71.0
2019-05-21T03:50:02.500Z,71.15
2019-05-21T03:55:03.551Z,71.27
2019-05-21T04:00:03.188Z,71.08
2019-05-21T04:05:02.702Z,71.23
2019-05-21T04:10:03.317Z,71.48
2019-05-21T04:15:02.902Z,71.78
2019-05-21T04:20:03.431Z,71.47
2019-05-21T04:25:02.945Z,71.57
2019-05-21T04:30:03.092Z,71.43
2019-05-21T04:35:02.591Z,71.93
2019-05-21T04:40:03.052Z,71.61
2019-05-21T04:45:02.559Z,71.83
2019-05-21T04:50:03.052Z,72.16
2019-05-21T04:55:02.544Z,72.52
2019-05-21T05:00:03.002Z,72.46
2019-05-21T05:05:02.486Z,72.46
2019-05-21T05:10:03.036Z,72.26
2019-05-21T05:15:02.563Z,72.21
2019-05-21T05:20:03.041Z,72.36
2019-05-21T05:25:02.531Z,72.66
2019-05-21T05:30:03.065Z,72.69
2019-05-21T05:35:02.598Z,72.67
2019-05-21T05:40:03.163Z,72.55
2019-05-21T05:45:02.646Z,72.8
2019-05-21T05:50:02.384Z,72.56
2019-05-21T05:55:02.920Z,72.73
2019-05-21T06:00:03.373Z,72.29
2019-05-21T06:05:02.922Z,72.24
2019-05-21T06:10:02.555Z,73.14
2019-05-21T06:15:03.369Z,73.73
2019-05-21T06:20:02.990Z,72.82
2019-05-21T06:25:02.596Z,72.08
2019-05-21T06:30:03.159Z,72.22
2019-05-21T06:35:02.690Z,71.93
2019-05-21T06:40:03.253Z,72.08
2019-05-21T06:45:03.485Z,72.08
2019-05-21T06:50:03.203Z,72.41
2019-05-21T06:55:02.708Z,72.52
2019-05-21T07:00:03.285Z,72.54
2019-05-21T07:05:02.776Z,72.5
2019-05-21T07:10:03.336Z,72.67
2019-05-21T07:15:02.844Z,72.29
2019-05-21T07:20:03.402Z,72.51
2019-05-21T07:25:02.913Z,72.64
2019-05-21T07:30:03.461Z,72.61
2019-05-21T07:35:02.986Z,72.45
2019-05-21T07:40:02.503Z,72.55
2019-05-21T07:45:03.045Z,72.55
2019-05-21T07:50:02.569Z,72.79
2019-05-21T07:55:03.132Z,72.85
2019-05-21T08:00:02.637Z,72.63
2019-05-21T08:05:03.203Z,72.9
2019-05-21T08:10:02.871Z,72.87
2019-05-21T08:15:03.364Z,72.95
2019-05-21T08:20:09.231Z,72.85
2019-05-21T08:25:02.622Z,72.59
2019-05-21T08:30:03.147Z,72.65
2019-05-21T08:35:02.848Z,72.71
2019-05-21T08:40:03.433Z,72.58
2019-05-21T08:45:03.717Z,72.44
2019-05-21T08:50:02.562Z,72.31
2019-05-21T08:55:03.102Z,72.25
2019-05-21T09:00:02.645Z,72.29
2019-05-21T09:05:03.184Z,72.39
2019-05-21T09:10:02.695Z,72.4
2019-05-21T09:15:03.237Z,72.54
2019-05-21T09:20:02.863Z,72.45
2019-05-21T09:25:04.017Z,72.52
2019-05-21T09:30:02.746Z,72.39
2019-05-21T09:35:03.291Z,72.65
2019-05-21T09:40:02.906Z,72.72
2019-05-21T09:45:03.460Z,72.79
2019-05-21T09:50:03.409Z,72.59
2019-05-21T09:55:03.409Z,72.72
2019-05-21T10:00:03.620Z,72.73
2019-05-21T10:05:02.464Z,72.81
2019-05-21T10:10:03.017Z,72.92
2019-05-21T10:15:02.532Z,73.25
2019-05-21T10:20:03.020Z,72.98
2019-05-21T10:25:02.482Z,73.4
2019-05-21T10:30:03.112Z,73.04
2019-05-21T10:35:03.240Z,73.22
2019-05-21T10:40:03.414Z,73.02
2019-05-21T10:45:02.935Z,72.47
2019-05-21T10:50:03.468Z,72.55
2019-05-21T10:55:03.001Z,72.69
2019-05-21T11:00:02.522Z,72.66
2019-05-21T11:05:03.069Z,72.65
2019-05-21T11:10:02.764Z,72.68
2019-05-21T11:15:03.357Z,72.52
2019-05-21T11:20:02.864Z,72.31
2019-05-21T11:25:03.396Z,72.56
2019-05-21T11:30:02.925Z,72.14
2019-05-21T11:35:03.470Z,72.22
2019-05-21T11:40:02.985Z,72.09
2019-05-21T11:45:02.556Z,72.55
2019-05-21T11:50:03.167Z,71.99
2019-05-21T11:55:02.612Z,71.85
2019-05-21T12:00:03.117Z,71.67
2019-05-21T12:05:02.645Z,71.66
2019-05-21T12:10:03.107Z,71.86
2019-05-21T12:15:02.610Z,71.76
2019-05-21T12:20:03.155Z,71.65
2019-05-21T12:25:02.668Z,71.5
2019-05-21T12:30:03.220Z,71.49
2019-05-21T12:35:02.870Z,71.38
2019-05-21T12:40:02.473Z,71.18
2019-05-21T12:45:03.026Z,71.26
2019-05-21T12:50:02.537Z,71.3
2019-05-21T12:55:02.986Z,71.33
2019-05-21T13:00:01.697Z,71.27
2019-05-21T13:05:03.261Z,70.98
2019-05-21T13:10:02.773Z,70.97
2019-05-21T13:15:03.313Z,70.97
2019-05-21T13:20:04.011Z,70.85
2019-05-21T13:25:02.974Z,70.83
2019-05-21T13:30:02.604Z,71.02
2019-05-21T13:35:03.481Z,70.92
2019-05-21T13:40:03.096Z,70.91
2019-05-21T13:45:02.651Z,70.94
2019-05-21T13:50:03.142Z,70.82
2019-05-21T13:55:02.654Z,70.66
2019-05-21T14:00:03.135Z,70.83
2019-05-21T14:05:03.163Z,70.92
2019-05-21T14:10:14.008Z,70.73
2019-05-21T14:15:03.306Z,70.65
2019-05-21T14:20:02.867Z,70.4
2019-05-21T14:25:03.389Z,70.59
2019-05-21T14:30:02.885Z,70.57
2019-05-21T14:35:03.448Z,70.48
2019-05-21T14:40:02.973Z,70.45
2019-05-21T14:45:02.515Z,70.41
2019-05-21T14:50:03.025Z,70.37
2019-05-21T14:55:03.299Z,70.41
2019-05-21T15:00:02.618Z,70.31
2019-05-21T15:05:03.120Z,70.26
2019-05-21T15:10:02.657Z,70.5
2019-05-21T15:15:03.323Z,70.52
2019-05-21T15:20:03.139Z,70.65
2019-05-21T15:25:02.645Z,70.44
2019-05-21T15:30:03.217Z,71.07
2019-05-21T15:35:02.766Z,71.74
2019-05-21T15:40:03.254Z,72.24
2019-05-21T15:45:02.781Z,72.5
2019-05-21T15:50:03.339Z,72.44
2019-05-21T15:55:06.758Z,72.9
2019-05-21T16:00:02.923Z,72.81
2019-05-21T16:05:03.447Z,73.43
2019-05-21T16:10:02.941Z,73.12
2019-05-21T16:15:03.550Z,73.43
2019-05-21T16:20:03.319Z,73.33
2019-05-21T16:25:02.841Z,73.33
2019-05-21T16:30:03.385Z,72.97
2019-05-21T16:35:02.921Z,72.4
2019-05-21T16:40:03.493Z,72.14
2019-05-21T16:45:02.923Z,71.99
2019-05-21T16:50:03.564Z,72.0
2019-05-21T16:55:03.190Z,71.62
2019-05-21T17:00:02.671Z,71.68
2019-05-21T17:05:03.307Z,71.38
2019-05-21T17:10:02.839Z,71.33
2019-05-21T17:15:03.393Z,71.46
2019-05-21T17:20:03.256Z,71.57
2019-05-21T17:25:02.939Z,71.59
2019-05-21T17:30:03.523Z,71.48
2019-05-21T17:35:03.004Z,71.34
2019-05-21T17:40:02.509Z,71.51
2019-05-21T17:45:03.075Z,71.52
2019-05-21T17:50:02.607Z,71.34
2019-05-21T17:55:03.137Z,71.31
2019-05-21T18:00:02.659Z,71.35
2019-05-21T18:05:03.205Z,71.42
2019-05-21T18:10:02.691Z,71.42
2019-05-21T18:15:03.295Z,71.22
2019-05-21T18:20:02.789Z,71.21
2019-05-21T18:25:03.354Z,71.18
2019-05-21T18:30:03.924Z,71.37
2019-05-21T18:35:03.036Z,71.26
2019-05-21T18:40:01.743Z,71.27
2019-05-21T18:45:03.276Z,71.17
2019-05-21T18:50:02.782Z,71.06
2019-05-21T18:55:03.229Z,71.16
2019-05-21T19:00:02.756Z,71.11
2019-05-21T19:05:03.306Z,71.12
2019-05-21T19:10:02.847Z,71.11
2019-05-21T19:15:03.398Z,71.28
2019-05-21T19:20:02.950Z,71.44
2019-05-21T19:25:02.422Z,71.29
2019-05-21T19:30:02.952Z,71.46
2019-05-21T19:35:03.425Z,71.28
2019-05-21T19:40:02.929Z,71.31
2019-05-21T19:45:03.485Z,71.23
2019-05-21T19:50:03.086Z,71.27
2019-05-21T19:55:02.617Z,71.28
2019-05-21T20:00:03.155Z,71.26
2019-05-21T20:05:02.680Z,71.36
2019-05-21T20:10:03.236Z,71.34
2019-05-21T20:15:02.682Z,71.45
2019-05-21T20:20:03.195Z,71.42
2019-05-21T20:25:02.681Z,71.52
2019-05-21T20:30:12.178Z,71.47
2019-05-21T20:35:02.565Z,71.61
2019-05-21T20:40:03.156Z,71.59
2019-05-21T20:45:02.643Z,71.61
2019-05-21T20:50:03.197Z,71.5
2019-05-21T20:55:02.707Z,71.86
2019-05-21T21:00:03.290Z,71.78
2019-05-21T21:05:02.892Z,71.84
2019-05-21T21:10:02.545Z,71.76
2019-05-21T21:15:03.116Z,71.85
2019-05-21T21:20:02.604Z,72.04
2019-05-21T21:25:03.162Z,72.02
2019-05-21T21:30:02.637Z,71.95
2019-05-21T21:35:02.447Z,72.16
2019-05-21T21:40:03.006Z,72.09
2019-05-21T21:45:02.550Z,72.04
2019-05-21T21:50:03.100Z,72.08
2019-05-21T21:55:02.594Z,72.22
2019-05-21T22:00:06.099Z,72.18
2019-05-21T22:05:02.711Z,72.19
2019-05-21T22:10:03.278Z,72.24
2019-05-21T22:15:02.759Z,72.22
2019-05-21T22:20:03.264Z,72.26
2019-05-21T22:25:02.812Z,72.33
2019-05-21T22:30:03.395Z,72.32
2019-05-21T22:35:02.869Z,72.31
2019-05-21T22:40:03.450Z,72.34
2019-05-21T22:45:08.333Z,72.44
2019-05-21T22:50:03.402Z,72.5
2019-05-21T22:55:02.909Z,72.62
2019-05-21T23:00:08.209Z,72.58
2019-05-21T23:05:02.573Z,72.68
2019-05-21T23:10:03.117Z,72.64
2019-05-21T23:15:02.670Z,72.65
2019-05-21T23:20:03.192Z,72.65
2019-05-21T23:25:02.718Z,72.83
2019-05-21T23:30:03.256Z,72.77
2019-05-21T23:35:02.736Z,72.73
2019-05-21T23:40:03.220Z,72.74
2019-05-21T23:45:02.749Z,72.74
2019-05-21T23:50:03.244Z,72.79
2019-05-21T23:55:02.696Z,72.81
